createdAt,value
2022-07-31T00:00:19.273Z,101720.75
2022-07-31T00:02:46.674Z,101715.97
2022-07-31T00:05:13.157Z,101720.75
2022-07-31T00:07:39.850Z,101711.41
2022-07-31T00:10:06.962Z,101718.91
2022-07-31T00:12:34.854Z,101717.03
2022-07-31T00:15:05.901Z,101716.63
2022-07-31T00:17:32.659Z,101709.34
2022-07-31T00:19:59.194Z,101704.56
2022-07-31T00:22:25.844Z,101704.84
2022-07-31T00:24:52.299Z,101707.28
2022-07-31T00:27:18.755Z,101705.78
2022-07-31T00:29:45.197Z,101701.03
2022-07-31T00:32:11.623Z,101699.44
2022-07-31T00:34:38.097Z,101702.69
2022-07-31T00:37:05.044Z,101697.28
2022-07-31T00:39:32.614Z,101691.50
2022-07-31T00:41:59.213Z,101683.94
2022-07-31T00:44:26.061Z,101685.88
2022-07-31T00:46:52.904Z,101678.88
2022-07-31T00:49:20.009Z,101671.31
2022-07-31T00:51:47.064Z,101682.47
2022-07-31T00:54:18.640Z,101680.06
2022-07-31T00:56:49.885Z,101687.00
2022-07-31T00:59:16.765Z,101683.56
2022-07-31T01:01:51.046Z,101682.25
2022-07-31T01:04:19.220Z,101686.78
2022-07-31T01:06:46.592Z,101682.03
2022-07-31T01:09:14.873Z,101683.94
2022-07-31T01:11:50.929Z,101679.34
2022-07-31T01:14:19.946Z,101684.22
2022-07-31T01:16:48.097Z,101685.34
2022-07-31T01:19:42.539Z,101669.66
2022-07-31T01:22:45.561Z,101660.91
2022-07-31T01:25:19.974Z,101665.19
2022-07-31T01:28:04.348Z,101653.41
2022-07-31T01:30:43.715Z,101651.94
2022-07-31T01:33:14.654Z,101656.06
2022-07-31T01:35:43.812Z,101648.94
2022-07-31T01:38:14.343Z,101643.78
2022-07-31T01:40:46.868Z,101641.09
2022-07-31T01:43:19.771Z,101639.19
2022-07-31T01:45:47.974Z,101639.78
2022-07-31T01:48:15.605Z,101639.78
2022-07-31T01:50:44.474Z,101637.69
2022-07-31T01:53:13.967Z,101644.09
2022-07-31T01:55:56.438Z,101645.56
2022-07-31T01:58:30.334Z,101643.31
2022-07-31T02:00:58.439Z,101649.88
2022-07-31T02:03:43.765Z,101640.88
2022-07-31T02:06:13.347Z,101642.34
2022-07-31T02:08:40.015Z,101640.13
2022-07-31T02:11:07.021Z,101633.97
2022-07-31T02:13:35.948Z,101641.78
2022-07-31T02:16:04.341Z,101639.56
2022-07-31T02:18:33.155Z,101644.47
2022-07-31T02:20:59.640Z,101636.50
2022-07-31T02:23:26.176Z,101645.00
2022-07-31T02:25:52.682Z,101636.56
2022-07-31T02:28:20.469Z,101629.97
2022-07-31T02:30:48.054Z,101636.75
2022-07-31T02:33:19.023Z,101631.50
2022-07-31T02:35:48.250Z,101635.44
2022-07-31T02:38:17.136Z,101628.78
2022-07-31T02:40:51.603Z,101630.31
2022-07-31T02:43:18.848Z,101631.31
2022-07-31T02:45:45.943Z,101628.19
2022-07-31T02:48:12.485Z,101621.19
2022-07-31T02:50:39.946Z,101617.16
2022-07-31T02:53:06.751Z,101621.22
2022-07-31T02:55:33.611Z,101610.41
2022-07-31T02:58:02.032Z,101615.84
2022-07-31T03:00:28.801Z,101613.63
2022-07-31T03:02:56.550Z,101611.16
2022-07-31T03:05:23.049Z,101608.00
2022-07-31T03:07:49.507Z,101611.56
2022-07-31T03:10:15.998Z,101608.56
2022-07-31T03:12:44.884Z,101606.38
2022-07-31T03:15:17.171Z,101600.22
2022-07-31T03:17:44.701Z,101602.66
2022-07-31T03:20:12.487Z,101596.78
2022-07-31T03:22:39.945Z,101594.34
2022-07-31T03:25:06.963Z,101595.09
2022-07-31T03:27:33.581Z,101604.91
2022-07-31T03:30:00.097Z,101590.97
2022-07-31T03:32:26.535Z,101592.09
2022-07-31T03:34:53.030Z,101588.16
2022-07-31T03:37:19.464Z,101596.38
2022-07-31T03:39:45.875Z,101593.34
2022-07-31T03:42:18.580Z,101599.38
2022-07-31T03:44:46.512Z,101587.91
2022-07-31T03:47:13.086Z,101590.84
2022-07-31T03:49:43.122Z,101593.00
2022-07-31T03:52:12.319Z,101593.34
2022-07-31T03:54:39.683Z,101588.53
2022-07-31T03:57:08.002Z,101591.88
2022-07-31T03:59:40.525Z,101585.53
2022-07-31T04:02:14.947Z,101587.75
2022-07-31T04:04:45.234Z,101590.78
2022-07-31T04:07:11.726Z,101594.72
2022-07-31T04:09:38.649Z,101603.75
2022-07-31T04:12:06.263Z,101608.81
2022-07-31T04:14:33.176Z,101602.34
2022-07-31T04:16:59.724Z,101600.44
2022-07-31T04:19:26.239Z,101606.31
2022-07-31T04:21:52.709Z,101603.34
2022-07-31T04:24:20.923Z,101601.66
2022-07-31T04:26:49.346Z,101612.88
2022-07-31T04:29:16.066Z,101604.38
2022-07-31T04:31:42.681Z,101604.56
2022-07-31T04:34:09.157Z,101606.91
2022-07-31T04:36:35.618Z,101608.41
2022-07-31T04:39:02.305Z,101604.84
2022-07-31T04:41:28.944Z,101599.22
2022-07-31T04:43:57.690Z,101601.84
2022-07-31T04:46:24.524Z,101592.31
2022-07-31T04:48:51.017Z,101588.94
2022-07-31T04:51:18.846Z,101587.63
2022-07-31T04:53:50.204Z,101580.75
2022-07-31T04:56:36.210Z,101587.91
2022-07-31T04:59:08.769Z,101583.50
2022-07-31T05:01:35.906Z,101584.59
2022-07-31T05:04:02.362Z,101578.63
2022-07-31T05:06:35.622Z,101578.63
2022-07-31T05:09:08.452Z,101585.34
2022-07-31T05:11:36.299Z,101582.75
2022-07-31T05:14:04.537Z,101570.38
2022-07-31T05:16:31.926Z,101578.94
2022-07-31T05:18:58.571Z,101577.88
2022-07-31T05:21:28.411Z,101575.59
2022-07-31T05:23:55.507Z,101584.22
2022-07-31T05:26:22.787Z,101584.47
2022-07-31T05:28:51.555Z,101582.47
2022-07-31T05:31:19.944Z,101594.84
2022-07-31T05:33:47.865Z,101590.91
2022-07-31T05:36:14.967Z,101594.47
2022-07-31T05:38:41.921Z,101591.91
2022-07-31T05:41:09.162Z,101590.06
2022-07-31T05:43:35.717Z,101582.97
2022-07-31T05:46:03.132Z,101583.84
2022-07-31T05:48:29.721Z,101589.28
2022-07-31T05:50:56.200Z,101595.16
2022-07-31T05:53:23.042Z,101594.69
2022-07-31T05:55:50.155Z,101593.13
2022-07-31T05:58:18.056Z,101588.03
2022-07-31T06:00:46.653Z,101590.84
2022-07-31T06:03:13.561Z,101588.69
2022-07-31T06:05:40.947Z,101581.25
2022-07-31T06:08:09.505Z,101583.00
2022-07-31T06:10:37.443Z,101584.75
2022-07-31T06:13:05.378Z,101585.03
2022-07-31T06:15:36.101Z,101578.84
2022-07-31T06:18:03.761Z,101590.75
2022-07-31T06:20:30.441Z,101582.81
2022-07-31T06:22:56.884Z,101591.97
2022-07-31T06:25:24.270Z,101585.53
2022-07-31T06:27:59.550Z,101594.47
2022-07-31T06:30:27.789Z,101593.50
2022-07-31T06:32:54.279Z,101589.03
2022-07-31T06:35:20.916Z,101585.06
2022-07-31T06:37:47.458Z,101585.06
2022-07-31T06:40:14.471Z,101578.63
2022-07-31T06:42:41.348Z,101582.06
2022-07-31T06:45:08.824Z,101577.63
2022-07-31T06:47:35.355Z,101575.59
2022-07-31T06:50:01.991Z,101576.09
2022-07-31T06:52:28.517Z,101583.78
2022-07-31T06:54:54.948Z,101580.28
2022-07-31T06:57:21.457Z,101570.88
2022-07-31T06:59:48.390Z,101568.84
2022-07-31T07:02:14.926Z,101567.84
2022-07-31T07:04:56.326Z,101570.06
2022-07-31T07:07:31.792Z,101566.53
2022-07-31T07:09:58.827Z,101557.13
2022-07-31T07:12:25.315Z,101564.03
2022-07-31T07:14:53.627Z,101569.19
2022-07-31T07:17:20.179Z,101556.19
2022-07-31T07:19:46.771Z,101562.13
2022-07-31T07:22:31.749Z,101550.28
2022-07-31T07:24:59.680Z,101557.53
2022-07-31T07:27:26.269Z,101548.22
2022-07-31T07:29:52.860Z,101544.41
2022-07-31T07:32:19.367Z,101542.81
2022-07-31T07:34:45.855Z,101537.09
2022-07-31T07:37:12.598Z,101530.44
2022-07-31T07:39:39.150Z,101528.72
2022-07-31T07:42:06.105Z,101525.53
2022-07-31T07:44:33.042Z,101526.06
2022-07-31T07:46:59.535Z,101532.50
2022-07-31T07:49:26.020Z,101532.78
2022-07-31T07:51:59.117Z,101521.94
2022-07-31T07:54:27.089Z,101521.63
2022-07-31T07:56:54.903Z,101528.81
2022-07-31T07:59:21.609Z,101522.06
2022-07-31T08:01:48.090Z,101513.94
2022-07-31T08:04:14.743Z,101511.81
2022-07-31T08:06:41.231Z,101510.38
2022-07-31T08:09:07.811Z,101521.63
2022-07-31T08:11:34.286Z,101517.97
2022-07-31T08:14:00.718Z,101521.16
2022-07-31T08:16:27.213Z,101519.81
2022-07-31T08:18:54.754Z,101516.00
2022-07-31T08:21:21.768Z,101523.53
2022-07-31T08:23:48.230Z,101519.66
2022-07-31T08:26:14.715Z,101504.59
2022-07-31T08:28:41.515Z,101517.41
2022-07-31T08:31:16.855Z,101514.78
2022-07-31T08:33:43.310Z,101510.81
2022-07-31T08:36:09.917Z,101509.09
2022-07-31T08:38:36.948Z,101506.97
2022-07-31T08:41:03.434Z,101508.16
2022-07-31T08:44:02.667Z,101502.97
2022-07-31T08:46:17.419Z,101507.69
2022-07-31T08:48:45.491Z,101499.13
2022-07-31T08:51:13.637Z,101510.56
2022-07-31T08:53:42.524Z,101503.91
2022-07-31T08:56:09.457Z,101507.31
2022-07-31T08:58:39.247Z,101497.06
2022-07-31T09:01:06.000Z,101509.47
2022-07-31T09:03:34.591Z,101494.19
2022-07-31T09:06:01.041Z,101494.31
2022-07-31T09:08:27.515Z,101491.69
2022-07-31T09:11:08.151Z,101488.63
2022-07-31T09:13:37.590Z,101483.78
2022-07-31T09:16:04.654Z,101480.13
2022-07-31T09:18:31.128Z,101477.22
2022-07-31T09:20:58.897Z,101467.75
2022-07-31T09:23:27.759Z,101472.28
2022-07-31T09:26:01.947Z,101471.78
2022-07-31T09:28:37.343Z,101470.16
2022-07-31T09:31:05.445Z,101468.09
2022-07-31T09:33:32.640Z,101463.47
2022-07-31T09:36:00.010Z,101476.03
2022-07-31T09:38:35.408Z,101460.91
2022-07-31T09:41:56.887Z,101460.25
2022-07-31T09:44:09.403Z,101460.72
2022-07-31T09:46:46.980Z,101455.28
2022-07-31T09:49:14.326Z,101451.19
2022-07-31T09:51:45.154Z,101451.53
2022-07-31T09:54:25.831Z,101451.19
2022-07-31T09:56:52.337Z,101450.72
2022-07-31T09:59:19.158Z,101454.56
2022-07-31T10:01:50.640Z,101446.03
2022-07-31T10:04:18.551Z,101452.72
2022-07-31T10:06:49.491Z,101457.78
2022-07-31T10:09:18.693Z,101458.09
2022-07-31T10:11:46.614Z,101459.34
2022-07-31T10:14:22.146Z,101454.13
2022-07-31T10:16:49.122Z,101457.75
2022-07-31T10:19:16.292Z,101456.19
2022-07-31T10:21:49.755Z,101439.31
2022-07-31T10:24:19.855Z,101435.97
2022-07-31T10:27:00.225Z,101435.25
2022-07-31T10:29:27.701Z,101427.22
2022-07-31T10:31:59.252Z,101426.16
2022-07-31T10:34:26.744Z,101423.34
2022-07-31T10:36:56.035Z,101413.81
2022-07-31T10:39:37.846Z,101413.22
2022-07-31T10:42:25.441Z,101418.47
2022-07-31T10:45:09.578Z,101412.56
2022-07-31T10:47:36.858Z,101416.25
2022-07-31T10:50:04.572Z,101407.44
2022-07-31T10:52:32.674Z,101405.56
2022-07-31T10:55:01.595Z,101405.97
2022-07-31T10:57:33.331Z,101402.63
2022-07-31T11:00:13.417Z,101397.91
2022-07-31T11:02:39.950Z,101409.25
2022-07-31T11:05:13.911Z,101402.41
2022-07-31T11:07:45.508Z,101392.69
2022-07-31T11:10:20.870Z,101396.22
2022-07-31T11:12:59.904Z,101401.25
2022-07-31T11:15:26.971Z,101398.47
2022-07-31T11:18:22.236Z,101397.50
2022-07-31T11:20:39.935Z,101382.28
2022-07-31T11:23:10.480Z,101380.78
2022-07-31T11:25:37.631Z,101373.78
2022-07-31T11:28:24.528Z,101371.78
2022-07-31T11:30:56.379Z,101370.81
2022-07-31T11:33:43.648Z,101370.28
2022-07-31T11:36:21.171Z,101373.47
2022-07-31T11:38:49.798Z,101367.50
2022-07-31T11:41:17.177Z,101362.84
2022-07-31T11:43:51.040Z,101373.88
2022-07-31T11:46:28.577Z,101366.13
2022-07-31T11:48:55.660Z,101364.94
2022-07-31T11:51:22.635Z,101365.19
2022-07-31T11:53:57.019Z,101358.56
2022-07-31T11:56:25.807Z,101365.94
2022-07-31T11:58:57.065Z,101345.66
2022-07-31T12:01:29.060Z,101345.84
2022-07-31T12:03:57.621Z,101344.75
2022-07-31T12:06:36.517Z,101342.75
2022-07-31T12:09:03.347Z,101344.16
2022-07-31T12:11:29.811Z,101341.91
2022-07-31T12:13:56.560Z,101339.50
2022-07-31T12:16:23.072Z,101344.63
2022-07-31T12:19:00.428Z,101341.41
2022-07-31T12:21:33.234Z,101335.19
2022-07-31T12:24:00.760Z,101344.38
2022-07-31T12:26:29.355Z,101345.47
2022-07-31T12:29:05.111Z,101346.66
2022-07-31T12:31:47.260Z,101343.16
2022-07-31T12:34:38.171Z,101341.66
2022-07-31T12:37:09.932Z,101346.38
2022-07-31T12:39:59.834Z,101350.41
2022-07-31T12:42:39.073Z,101353.03
2022-07-31T12:45:18.333Z,101351.56
2022-07-31T12:47:52.149Z,101350.50
2022-07-31T12:50:23.107Z,101347.75
2022-07-31T12:52:49.565Z,101347.25
2022-07-31T12:55:17.306Z,101347.34
2022-07-31T12:57:51.217Z,101346.97
2022-07-31T13:00:20.158Z,101351.41
2022-07-31T13:02:46.659Z,101353.81
2022-07-31T13:05:13.135Z,101359.59
2022-07-31T13:07:39.646Z,101353.56
2022-07-31T13:10:17.568Z,101360.41
2022-07-31T13:12:50.409Z,101358.22
2022-07-31T13:15:18.059Z,101350.78
2022-07-31T13:17:48.226Z,101352.88
2022-07-31T13:20:18.256Z,101352.25
2022-07-31T13:22:44.755Z,101348.31
2022-07-31T13:25:11.214Z,101347.59
2022-07-31T13:27:37.802Z,101348.28
2022-07-31T13:30:05.003Z,101343.06
2022-07-31T13:32:31.981Z,101332.63
2022-07-31T13:35:26.510Z,101340.84
2022-07-31T13:37:46.681Z,101337.69
2022-07-31T13:40:13.605Z,101342.34
2022-07-31T13:42:40.054Z,101344.44
2022-07-31T13:45:08.691Z,101349.34
2022-07-31T13:47:50.705Z,101346.28
2022-07-31T13:50:18.570Z,101335.09
2022-07-31T13:52:44.987Z,101324.59
2022-07-31T13:55:11.425Z,101324.34
2022-07-31T13:57:37.951Z,101319.81
2022-07-31T14:00:04.927Z,101331.34
2022-07-31T14:02:31.479Z,101324.84
2022-07-31T14:04:58.204Z,101325.59
2022-07-31T14:07:45.617Z,101321.91
2022-07-31T14:10:11.709Z,101325.13
2022-07-31T14:12:39.586Z,101315.06
2022-07-31T14:15:07.473Z,101320.41
2022-07-31T14:17:33.933Z,101317.38
2022-07-31T14:20:00.357Z,101307.28
2022-07-31T14:22:26.828Z,101307.31
2022-07-31T14:24:53.711Z,101300.66
2022-07-31T14:27:20.790Z,101308.53
2022-07-31T14:29:47.949Z,101302.34
2022-07-31T14:32:14.414Z,101300.69
2022-07-31T14:34:40.859Z,101306.50
2022-07-31T14:37:07.747Z,101306.34
2022-07-31T14:39:34.358Z,101300.72
2022-07-31T14:42:00.801Z,101304.75
2022-07-31T14:44:28.845Z,101304.44
2022-07-31T14:46:55.709Z,101295.69
2022-07-31T14:49:22.368Z,101298.31
2022-07-31T14:51:48.974Z,101302.63
2022-07-31T14:54:15.440Z,101302.63
2022-07-31T14:59:29.201Z,101303.75
2022-07-31T15:01:55.815Z,101303.44
2022-07-31T15:04:22.368Z,101292.97
2022-07-31T15:06:56.313Z,101309.47
2022-07-31T15:09:30.915Z,101303.13
2022-07-31T15:12:01.107Z,101306.06
2022-07-31T15:14:29.588Z,101312.66
2022-07-31T15:16:56.195Z,101307.09
2022-07-31T15:19:22.635Z,101306.13
2022-07-31T15:22:09.500Z,101307.63
2022-07-31T15:24:35.818Z,101309.41
2022-07-31T15:27:02.734Z,101309.69
2022-07-31T15:30:05.553Z,101301.53
2022-07-31T15:32:15.908Z,101301.25
2022-07-31T15:34:42.365Z,101299.59
2022-07-31T15:37:08.828Z,101308.53
2022-07-31T15:39:35.267Z,101301.34
2022-07-31T15:42:02.341Z,101310.72
2022-07-31T15:44:29.033Z,101303.84
2022-07-31T15:46:55.523Z,101296.16
2022-07-31T15:49:22.047Z,101298.41
2022-07-31T15:51:48.530Z,101292.97
2022-07-31T15:54:15.287Z,101291.25
2022-07-31T15:56:41.755Z,101289.75
2022-07-31T15:59:08.194Z,101295.19
2022-07-31T16:01:34.679Z,101292.97
2022-07-31T16:04:01.336Z,101280.59
2022-07-31T16:06:32.169Z,101287.25
2022-07-31T16:08:59.343Z,101276.38
2022-07-31T16:12:04.387Z,101286.28
2022-07-31T16:14:12.229Z,101275.59
2022-07-31T16:16:41.967Z,101286.00
2022-07-31T16:19:10.664Z,101273.84
2022-07-31T16:21:40.607Z,101269.81
2022-07-31T16:24:07.153Z,101279.22
2022-07-31T16:26:34.275Z,101272.00
2022-07-31T16:29:00.693Z,101264.88
2022-07-31T16:31:30.105Z,101267.06
2022-07-31T16:33:57.266Z,101256.19
2022-07-31T16:36:24.856Z,101257.91
2022-07-31T16:39:17.709Z,101261.63
2022-07-31T16:41:38.861Z,101261.16
2022-07-31T16:44:21.218Z,101258.94
2022-07-31T16:46:51.387Z,101250.75
2022-07-31T16:49:35.419Z,101251.22
2022-07-31T16:52:04.625Z,101244.09
2022-07-31T16:54:31.111Z,101240.81
2022-07-31T16:56:57.554Z,101243.06
2022-07-31T16:59:23.997Z,101229.41
2022-07-31T17:01:57.433Z,101233.34
2022-07-31T17:04:27.284Z,101229.16
2022-07-31T17:06:53.853Z,101224.50
2022-07-31T17:09:20.414Z,101221.59
2022-07-31T17:11:48.489Z,101220.66
2022-07-31T17:14:16.959Z,101216.72
2022-07-31T17:16:47.202Z,101216.50
2022-07-31T17:19:15.793Z,101217.97
2022-07-31T17:21:44.571Z,101214.50
2022-07-31T17:24:15.672Z,101212.75
2022-07-31T17:26:42.898Z,101203.34
2022-07-31T17:29:09.349Z,101214.50
2022-07-31T17:31:35.768Z,101204.63
2022-07-31T17:34:05.965Z,101209.06
2022-07-31T17:36:35.874Z,101201.16
2022-07-31T17:39:02.469Z,101206.13
2022-07-31T17:41:29.044Z,101209.81
2022-07-31T17:43:55.534Z,101211.06
2022-07-31T17:46:29.290Z,101211.31
2022-07-31T17:49:03.392Z,101205.84
2022-07-31T17:51:29.974Z,101203.88
2022-07-31T17:53:59.232Z,101206.09
2022-07-31T17:56:26.657Z,101203.38
2022-07-31T17:58:53.211Z,101211.56
2022-07-31T18:01:19.752Z,101210.28
2022-07-31T18:03:46.322Z,101210.81
2022-07-31T18:06:12.724Z,101204.38
2022-07-31T18:08:39.166Z,101201.91
2022-07-31T18:11:06.538Z,101205.84
2022-07-31T18:13:39.090Z,101201.13
2022-07-31T18:16:14.411Z,101196.69
2022-07-31T18:18:40.831Z,101197.69
2022-07-31T18:21:07.311Z,101204.88
2022-07-31T18:23:33.737Z,101199.44
2022-07-31T18:26:00.423Z,101205.13
2022-07-31T18:28:26.941Z,101208.09
2022-07-31T18:30:53.657Z,101206.09
2022-07-31T18:33:20.133Z,101200.41
2022-07-31T18:35:46.633Z,101203.38
2022-07-31T18:38:13.109Z,101205.84
2022-07-31T18:40:39.572Z,101205.56
2022-07-31T18:43:06.188Z,101211.03
2022-07-31T18:45:32.940Z,101209.53
2022-07-31T18:47:59.442Z,101208.78
2022-07-31T18:50:59.455Z,101206.03
2022-07-31T18:53:13.156Z,101210.97
2022-07-31T18:55:39.616Z,101202.59
2022-07-31T18:58:08.015Z,101201.13
2022-07-31T19:00:34.546Z,101204.56
2022-07-31T19:03:01.021Z,101201.84
2022-07-31T19:05:27.955Z,101207.03
2022-07-31T19:07:54.365Z,101207.28
2022-07-31T19:10:29.545Z,101200.59
2022-07-31T19:12:57.938Z,101205.50
2022-07-31T19:15:24.450Z,101197.84
2022-07-31T19:17:50.940Z,101204.53
2022-07-31T19:20:56.391Z,101200.84
2022-07-31T19:23:04.228Z,101199.59
2022-07-31T19:26:02.611Z,101204.06
2022-07-31T19:28:20.768Z,101217.13
2022-07-31T19:30:53.708Z,101202.50
2022-07-31T19:33:20.285Z,101212.38
2022-07-31T19:35:58.517Z,101207.69
2022-07-31T19:38:28.204Z,101206.44
2022-07-31T19:40:54.702Z,101206.63
2022-07-31T19:43:21.341Z,101217.53
2022-07-31T19:46:09.786Z,101210.66
2022-07-31T19:48:35.878Z,101214.28
2022-07-31T19:51:02.518Z,101222.91
2022-07-31T19:53:28.955Z,101219.22
2022-07-31T19:55:55.472Z,101214.94
2022-07-31T19:58:22.004Z,101216.94
2022-07-31T20:00:48.453Z,101216.69
2022-07-31T20:03:14.949Z,101218.69
2022-07-31T20:05:41.517Z,101226.84
2022-07-31T20:08:07.990Z,101212.75
2022-07-31T20:10:34.471Z,101208.78
2022-07-31T20:13:00.896Z,101217.72
2022-07-31T20:15:27.554Z,101211.75
2022-07-31T20:18:26.719Z,101207.53
2022-07-31T20:20:57.038Z,101213.25
2022-07-31T20:23:24.037Z,101212.47
2022-07-31T20:25:50.672Z,101207.88
2022-07-31T20:28:17.191Z,101202.66
2022-07-31T20:30:43.715Z,101203.88
2022-07-31T20:33:11.363Z,101207.16
2022-07-31T20:35:47.969Z,101212.09
2022-07-31T20:38:25.471Z,101207.44
2022-07-31T20:40:55.444Z,101205.25
2022-07-31T20:43:23.988Z,101200.78
2022-07-31T20:45:51.529Z,101194.59
2022-07-31T20:48:17.985Z,101197.09
2022-07-31T20:50:47.831Z,101192.38
2022-07-31T20:53:14.876Z,101199.56
2022-07-31T20:55:41.411Z,101199.53
2022-07-31T20:58:07.869Z,101205.94
2022-07-31T21:00:38.062Z,101201.94
2022-07-31T21:03:05.816Z,101200.50
2022-07-31T21:05:32.265Z,101201.50
2022-07-31T21:07:58.786Z,101195.81
2022-07-31T21:10:29.543Z,101198.78
2022-07-31T21:12:57.267Z,101200.03
2022-07-31T21:15:41.074Z,101193.16
2022-07-31T21:18:11.157Z,101190.69
2022-07-31T21:20:51.066Z,101199.50
2022-07-31T21:23:23.938Z,101197.81
2022-07-31T21:25:51.784Z,101195.59
2022-07-31T21:28:18.703Z,101193.63
2022-07-31T21:30:45.810Z,101192.63
2022-07-31T21:33:12.305Z,101197.63
2022-07-31T21:35:39.971Z,101193.16
2022-07-31T21:38:10.356Z,101198.59
2022-07-31T21:40:38.843Z,101196.88
2022-07-31T21:43:05.856Z,101202.81
2022-07-31T21:45:48.976Z,101193.88
2022-07-31T21:48:19.793Z,101200.28
2022-07-31T21:50:46.884Z,101207.69
2022-07-31T21:53:14.108Z,101199.06
2022-07-31T21:55:40.828Z,101198.06
2022-07-31T21:58:08.286Z,101212.63
2022-07-31T22:00:34.855Z,101207.94
2022-07-31T22:03:02.926Z,101206.41
2022-07-31T22:05:49.102Z,101207.59
2022-07-31T22:08:15.628Z,101208.78
2022-07-31T22:10:42.144Z,101200.41
2022-07-31T22:13:09.042Z,101200.91
2022-07-31T22:15:58.130Z,101203.06
2022-07-31T22:18:22.150Z,101202.09
2022-07-31T22:20:48.844Z,101207.81
2022-07-31T22:23:15.554Z,101206.59
2022-07-31T22:25:42.847Z,101210.06
2022-07-31T22:28:09.352Z,101209.00
2022-07-31T22:30:35.877Z,101217.91
2022-07-31T22:33:02.468Z,101207.31
2022-07-31T22:35:30.440Z,101214.47
2022-07-31T22:37:57.018Z,101215.75
2022-07-31T22:40:24.301Z,101215.75
2022-07-31T22:42:57.415Z,101221.63
2022-07-31T22:45:24.708Z,101225.28
2022-07-31T22:47:51.560Z,101215.69
2022-07-31T22:50:18.238Z,101225.09
2022-07-31T22:52:44.703Z,101219.72
2022-07-31T22:55:11.668Z,101222.88
2022-07-31T22:57:38.376Z,101231.75
2022-07-31T23:00:07.753Z,101218.47
2022-07-31T23:02:34.325Z,101228.53
2022-07-31T23:05:00.852Z,101223.91
2022-07-31T23:07:27.344Z,101226.63
2022-07-31T23:09:53.788Z,101234.09
2022-07-31T23:12:20.205Z,101230.34
2022-07-31T23:14:46.661Z,101231.34
2022-07-31T23:17:23.354Z,101233.38
2022-07-31T23:19:54.045Z,101234.59
2022-07-31T23:22:33.565Z,101227.88
2022-07-31T23:25:04.999Z,101229.09
2022-07-31T23:27:32.495Z,101226.91
2022-07-31T23:29:59.483Z,101234.47
2022-07-31T23:32:26.956Z,101237.19
2022-07-31T23:34:53.533Z,101225.59
2022-07-31T23:37:20.097Z,101236.66
2022-07-31T23:39:46.753Z,101237.19
2022-07-31T23:42:31.743Z,101242.38
2022-07-31T23:44:58.160Z,101236.69
2022-07-31T23:47:24.873Z,101236.44
2022-07-31T23:50:10.811Z,101235.22
2022-07-31T23:52:37.290Z,101234.63
2022-07-31T23:55:03.799Z,101236.03
2022-07-31T23:57:34.515Z,101234.94
